sensor_id;sensor_type;location;lat;lon;timestamp;P1;durP1;ratioP1;P2;durP2;ratioP2
10701;SDS011;5402;50.004;8.246;2024-03-17T00:00:04;21.37;;;15.50;;
10701;SDS011;5402;50.004;8.246;2024-03-17T00:02:35;8.23;;;6.83;;
10701;SDS011;5402;50.004;8.246;2024-03-17T00:05:02;7.23;;;5.57;;
10701;SDS011;5402;50.004;8.246;2024-03-17T00:07:30;6.87;;;5.43;;
10701;SDS011;5402;50.004;8.246;2024-03-17T00:09:56;9.20;;;5.17;;
10701;SDS011;5402;50.004;8.246;2024-03-17T00:12:23;7.83;;;5.10;;
10701;SDS011;5402;50.004;8.246;2024-03-17T00:14:48;7.33;;;4.90;;
10701;SDS011;5402;50.004;8.246;2024-03-17T00:17:15;6.50;;;4.73;;
10701;SDS011;5402;50.004;8.246;2024-03-17T00:19:41;7.67;;;4.87;;
10701;SDS011;5402;50.004;8.246;2024-03-17T00:22:08;6.83;;;4.90;;
10701;SDS011;5402;50.004;8.246;2024-03-17T00:24:39;7.30;;;5.10;;
10701;SDS011;5402;50.004;8.246;2024-03-17T00:27:06;7.10;;;4.77;;
10701;SDS011;5402;50.004;8.246;2024-03-17T00:29:32;5.60;;;4.57;;
10701;SDS011;5402;50.004;8.246;2024-03-17T00:31:59;6.00;;;4.40;;
10701;SDS011;5402;50.004;8.246;2024-03-17T00:34:25;7.60;;;4.43;;
10701;SDS011;5402;50.004;8.246;2024-03-17T00:36:51;9.77;;;4.93;;
10701;SDS011;5402;50.004;8.246;2024-03-17T00:39:22;7.05;;;4.25;;
10701;SDS011;5402;50.004;8.246;2024-03-17T00:41:50;6.33;;;4.43;;
10701;SDS011;5402;50.004;8.246;2024-03-17T00:44:16;7.27;;;4.83;;
10701;SDS011;5402;50.004;8.246;2024-03-17T00:46:43;8.57;;;5.33;;
10701;SDS011;5402;50.004;8.246;2024-03-17T00:49:09;6.00;;;4.57;;
10701;SDS011;5402;50.004;8.246;2024-03-17T00:51:36;6.47;;;4.80;;
10701;SDS011;5402;50.004;8.246;2024-03-17T00:54:01;5.73;;;4.30;;
10701;SDS011;5402;50.004;8.246;2024-03-17T00:56:29;6.00;;;4.43;;
10701;SDS011;5402;50.004;8.246;2024-03-17T00:58:56;6.47;;;4.60;;
10701;SDS011;5402;50.004;8.246;2024-03-17T01:01:22;6.20;;;4.43;;
10701;SDS011;5402;50.004;8.246;2024-03-17T01:03:50;5.37;;;4.27;;
10701;SDS011;5402;50.004;8.246;2024-03-17T01:06:17;6.50;;;4.40;;
10701;SDS011;5402;50.004;8.246;2024-03-17T01:08:43;6.13;;;4.30;;
10701;SDS011;5402;50.004;8.246;2024-03-17T01:11:13;7.67;;;4.53;;
10701;SDS011;5402;50.004;8.246;2024-03-17T01:13:40;8.20;;;4.57;;
10701;SDS011;5402;50.004;8.246;2024-03-17T01:16:08;7.90;;;4.50;;
10701;SDS011;5402;50.004;8.246;2024-03-17T01:18:34;5.30;;;3.90;;
10701;SDS011;5402;50.004;8.246;2024-03-17T01:21:02;8.50;;;4.53;;
10701;SDS011;5402;50.004;8.246;2024-03-17T01:23:28;5.87;;;4.67;;
10701;SDS011;5402;50.004;8.246;2024-03-17T01:25:55;6.43;;;4.33;;
10701;SDS011;5402;50.004;8.246;2024-03-17T01:28:20;6.80;;;4.73;;
10701;SDS011;5402;50.004;8.246;2024-03-17T01:30:47;6.03;;;4.43;;
10701;SDS011;5402;50.004;8.246;2024-03-17T01:33:15;5.57;;;4.10;;
10701;SDS011;5402;50.004;8.246;2024-03-17T01:35:43;5.83;;;4.43;;
10701;SDS011;5402;50.004;8.246;2024-03-17T01:38:10;7.47;;;4.83;;
10701;SDS011;5402;50.004;8.246;2024-03-17T01:40:36;6.80;;;4.63;;
10701;SDS011;5402;50.004;8.246;2024-03-17T01:43:03;9.77;;;4.47;;
10701;SDS011;5402;50.004;8.246;2024-03-17T01:45:29;7.03;;;4.30;;
10701;SDS011;5402;50.004;8.246;2024-03-17T01:47:58;6.30;;;4.70;;
10701;SDS011;5402;50.004;8.246;2024-03-17T01:50:27;6.20;;;4.47;;
10701;SDS011;5402;50.004;8.246;2024-03-17T01:52:58;6.97;;;4.33;;
10701;SDS011;5402;50.004;8.246;2024-03-17T01:55:26;6.87;;;4.27;;
10701;SDS011;5402;50.004;8.246;2024-03-17T01:57:54;5.93;;;4.13;;
10701;SDS011;5402;50.004;8.246;2024-03-17T02:00:20;5.80;;;4.30;;
10701;SDS011;5402;50.004;8.246;2024-03-17T02:02:48;6.50;;;4.30;;
10701;SDS011;5402;50.004;8.246;2024-03-17T02:05:14;9.07;;;4.47;;
10701;SDS011;5402;50.004;8.246;2024-03-17T02:07:42;5.03;;;4.23;;
10701;SDS011;5402;50.004;8.246;2024-03-17T02:10:09;6.77;;;4.07;;
10701;SDS011;5402;50.004;8.246;2024-03-17T02:12:35;6.93;;;4.60;;
10701;SDS011;5402;50.004;8.246;2024-03-17T02:15:03;8.03;;;4.63;;
10701;SDS011;5402;50.004;8.246;2024-03-17T02:17:30;7.20;;;4.73;;
10701;SDS011;5402;50.004;8.246;2024-03-17T02:19:57;6.87;;;4.17;;
10701;SDS011;5402;50.004;8.246;2024-03-17T02:22:24;4.40;;;4.00;;
10701;SDS011;5402;50.004;8.246;2024-03-17T02:24:52;6.83;;;4.50;;
10701;SDS011;5402;50.004;8.246;2024-03-17T02:27:18;6.80;;;5.03;;
10701;SDS011;5402;50.004;8.246;2024-03-17T02:29:45;9.00;;;4.80;;
10701;SDS011;5402;50.004;8.246;2024-03-17T02:32:11;5.73;;;4.50;;
10701;SDS011;5402;50.004;8.246;2024-03-17T02:34:38;5.93;;;4.37;;
10701;SDS011;5402;50.004;8.246;2024-03-17T02:37:04;7.63;;;4.50;;
10701;SDS011;5402;50.004;8.246;2024-03-17T02:39:33;5.30;;;4.50;;
10701;SDS011;5402;50.004;8.246;2024-03-17T02:42:00;6.37;;;4.77;;
10701;SDS011;5402;50.004;8.246;2024-03-17T02:44:27;7.17;;;4.53;;
10701;SDS011;5402;50.004;8.246;2024-03-17T02:46:56;6.70;;;5.17;;
10701;SDS011;5402;50.004;8.246;2024-03-17T02:49:22;25.60;;;16.57;;
10701;SDS011;5402;50.004;8.246;2024-03-17T02:51:50;19.80;;;13.97;;
10701;SDS011;5402;50.004;8.246;2024-03-17T02:54:17;8.57;;;6.33;;
10701;SDS011;5402;50.004;8.246;2024-03-17T02:56:45;7.63;;;5.20;;
10701;SDS011;5402;50.004;8.246;2024-03-17T02:59:11;6.73;;;4.67;;
10701;SDS011;5402;50.004;8.246;2024-03-17T03:01:38;6.50;;;4.60;;
10701;SDS011;5402;50.004;8.246;2024-03-17T03:04:05;5.37;;;4.20;;
10701;SDS011;5402;50.004;8.246;2024-03-17T03:06:32;6.80;;;4.87;;
10701;SDS011;5402;50.004;8.246;2024-03-17T03:08:59;5.00;;;4.27;;
10701;SDS011;5402;50.004;8.246;2024-03-17T03:11:27;6.43;;;4.20;;
10701;SDS011;5402;50.004;8.246;2024-03-17T03:13:55;7.03;;;4.67;;
10701;SDS011;5402;50.004;8.246;2024-03-17T03:16:21;5.17;;;4.30;;
10701;SDS011;5402;50.004;8.246;2024-03-17T03:18:50;7.07;;;4.73;;
10701;SDS011;5402;50.004;8.246;2024-03-17T03:21:17;5.40;;;4.20;;
10701;SDS011;5402;50.004;8.246;2024-03-17T03:23:44;5.30;;;4.20;;
10701;SDS011;5402;50.004;8.246;2024-03-17T03:26:11;6.07;;;4.17;;
10701;SDS011;5402;50.004;8.246;2024-03-17T03:28:37;5.93;;;4.43;;
10701;SDS011;5402;50.004;8.246;2024-03-17T03:31:05;6.37;;;4.20;;
10701;SDS011;5402;50.004;8.246;2024-03-17T03:33:32;5.37;;;3.97;;
10701;SDS011;5402;50.004;8.246;2024-03-17T03:35:58;4.87;;;3.97;;
10701;SDS011;5402;50.004;8.246;2024-03-17T03:38:25;6.30;;;4.30;;
10701;SDS011;5402;50.004;8.246;2024-03-17T03:40:52;6.87;;;3.90;;
10701;SDS011;5402;50.004;8.246;2024-03-17T03:43:19;6.20;;;4.17;;
10701;SDS011;5402;50.004;8.246;2024-03-17T03:45:46;5.53;;;3.80;;
10701;SDS011;5402;50.004;8.246;2024-03-17T03:48:14;6.07;;;4.10;;
10701;SDS011;5402;50.004;8.246;2024-03-17T03:50:40;4.83;;;3.80;;
10701;SDS011;5402;50.004;8.246;2024-03-17T03:53:07;4.73;;;3.77;;
10701;SDS011;5402;50.004;8.246;2024-03-17T03:55:34;4.87;;;3.63;;
10701;SDS011;5402;50.004;8.246;2024-03-17T03:58:00;6.20;;;4.30;;
10701;SDS011;5402;50.004;8.246;2024-03-17T04:00:28;8.03;;;4.20;;
10701;SDS011;5402;50.004;8.246;2024-03-17T04:02:57;9.17;;;4.17;;
10701;SDS011;5402;50.004;8.246;2024-03-17T04:05:25;5.43;;;4.33;;
10701;SDS011;5402;50.004;8.246;2024-03-17T04:07:51;6.33;;;3.57;;
10701;SDS011;5402;50.004;8.246;2024-03-17T04:10:18;5.30;;;4.13;;
10701;SDS011;5402;50.004;8.246;2024-03-17T04:12:46;6.33;;;4.33;;
10701;SDS011;5402;50.004;8.246;2024-03-17T04:15:12;6.47;;;4.20;;
10701;SDS011;5402;50.004;8.246;2024-03-17T04:17:40;5.43;;;4.13;;
10701;SDS011;5402;50.004;8.246;2024-03-17T04:20:07;6.77;;;4.13;;
10701;SDS011;5402;50.004;8.246;2024-03-17T04:22:39;4.87;;;3.57;;
10701;SDS011;5402;50.004;8.246;2024-03-17T04:25:08;6.40;;;4.17;;
10701;SDS011;5402;50.004;8.246;2024-03-17T04:27:35;6.57;;;4.57;;
10701;SDS011;5402;50.004;8.246;2024-03-17T04:30:05;5.07;;;3.87;;
10701;SDS011;5402;50.004;8.246;2024-03-17T04:32:32;6.37;;;4.47;;
10701;SDS011;5402;50.004;8.246;2024-03-17T04:34:59;5.20;;;3.87;;
10701;SDS011;5402;50.004;8.246;2024-03-17T04:37:26;5.57;;;4.30;;
10701;SDS011;5402;50.004;8.246;2024-03-17T04:39:54;6.30;;;4.03;;
10701;SDS011;5402;50.004;8.246;2024-03-17T04:42:22;7.60;;;4.60;;
10701;SDS011;5402;50.004;8.246;2024-03-17T04:44:49;7.47;;;4.53;;
10701;SDS011;5402;50.004;8.246;2024-03-17T04:47:18;6.43;;;4.20;;
10701;SDS011;5402;50.004;8.246;2024-03-17T04:49:45;6.23;;;4.00;;
10701;SDS011;5402;50.004;8.246;2024-03-17T04:52:11;6.30;;;4.13;;
10701;SDS011;5402;50.004;8.246;2024-03-17T04:54:40;5.17;;;3.93;;
10701;SDS011;5402;50.004;8.246;2024-03-17T04:57:09;5.83;;;4.20;;
10701;SDS011;5402;50.004;8.246;2024-03-17T04:59:36;6.00;;;4.50;;
10701;SDS011;5402;50.004;8.246;2024-03-17T05:02:03;5.87;;;4.40;;
10701;SDS011;5402;50.004;8.246;2024-03-17T05:04:30;6.63;;;4.73;;
10701;SDS011;5402;50.004;8.246;2024-03-17T05:06:57;5.40;;;4.13;;
10701;SDS011;5402;50.004;8.246;2024-03-17T05:09:23;9.13;;;5.13;;
10701;SDS011;5402;50.004;8.246;2024-03-17T05:11:50;7.33;;;4.67;;
10701;SDS011;5402;50.004;8.246;2024-03-17T05:14:19;8.27;;;4.23;;
10701;SDS011;5402;50.004;8.246;2024-03-17T05:16:47;6.77;;;4.37;;
10701;SDS011;5402;50.004;8.246;2024-03-17T05:19:15;6.53;;;4.90;;
10701;SDS011;5402;50.004;8.246;2024-03-17T05:21:42;7.03;;;4.23;;
10701;SDS011;5402;50.004;8.246;2024-03-17T05:24:09;5.97;;;3.87;;
10701;SDS011;5402;50.004;8.246;2024-03-17T05:26:37;5.43;;;4.63;;
10701;SDS011;5402;50.004;8.246;2024-03-17T05:29:03;6.30;;;4.40;;
10701;SDS011;5402;50.004;8.246;2024-03-17T05:31:31;6.70;;;4.47;;
10701;SDS011;5402;50.004;8.246;2024-03-17T05:33:58;5.37;;;4.50;;
10701;SDS011;5402;50.004;8.246;2024-03-17T05:36:25;6.00;;;4.43;;
10701;SDS011;5402;50.004;8.246;2024-03-17T05:38:52;7.00;;;4.43;;
10701;SDS011;5402;50.004;8.246;2024-03-17T05:41:19;6.60;;;4.77;;
10701;SDS011;5402;50.004;8.246;2024-03-17T05:43:45;7.20;;;4.53;;
10701;SDS011;5402;50.004;8.246;2024-03-17T05:46:14;5.70;;;4.70;;
10701;SDS011;5402;50.004;8.246;2024-03-17T05:48:42;9.13;;;4.27;;
10701;SDS011;5402;50.004;8.246;2024-03-17T05:51:09;6.53;;;4.73;;
10701;SDS011;5402;50.004;8.246;2024-03-17T05:53:36;5.73;;;4.67;;
10701;SDS011;5402;50.004;8.246;2024-03-17T05:56:05;5.83;;;4.40;;
10701;SDS011;5402;50.004;8.246;2024-03-17T05:58:34;5.37;;;4.67;;
10701;SDS011;5402;50.004;8.246;2024-03-17T06:01:01;6.57;;;4.23;;
10701;SDS011;5402;50.004;8.246;2024-03-17T06:03:28;6.53;;;4.80;;
10701;SDS011;5402;50.004;8.246;2024-03-17T06:05:58;8.23;;;4.73;;
10701;SDS011;5402;50.004;8.246;2024-03-17T06:08:25;7.67;;;4.50;;
10701;SDS011;5402;50.004;8.246;2024-03-17T06:10:52;5.23;;;4.30;;
10701;SDS011;5402;50.004;8.246;2024-03-17T06:13:18;7.60;;;4.33;;
10701;SDS011;5402;50.004;8.246;2024-03-17T06:15:45;5.80;;;4.47;;
10701;SDS011;5402;50.004;8.246;2024-03-17T06:18:12;8.80;;;4.90;;
10701;SDS011;5402;50.004;8.246;2024-03-17T06:20:42;6.53;;;4.33;;
10701;SDS011;5402;50.004;8.246;2024-03-17T06:23:11;6.90;;;4.47;;
10701;SDS011;5402;50.004;8.246;2024-03-17T06:25:39;7.30;;;5.07;;
10701;SDS011;5402;50.004;8.246;2024-03-17T06:28:07;6.50;;;4.93;;
10701;SDS011;5402;50.004;8.246;2024-03-17T06:30:34;6.23;;;4.43;;
10701;SDS011;5402;50.004;8.246;2024-03-17T06:33:02;7.10;;;4.70;;
10701;SDS011;5402;50.004;8.246;2024-03-17T06:35:30;7.80;;;4.90;;
10701;SDS011;5402;50.004;8.246;2024-03-17T06:37:58;8.57;;;5.23;;
10701;SDS011;5402;50.004;8.246;2024-03-17T06:40:27;10.87;;;5.13;;
10701;SDS011;5402;50.004;8.246;2024-03-17T06:42:54;7.37;;;4.83;;
10701;SDS011;5402;50.004;8.246;2024-03-17T06:45:21;9.23;;;4.90;;
10701;SDS011;5402;50.004;8.246;2024-03-17T06:47:48;10.27;;;5.67;;
10701;SDS011;5402;50.004;8.246;2024-03-17T06:50:15;9.33;;;5.77;;
10701;SDS011;5402;50.004;8.246;2024-03-17T06:52:41;8.43;;;4.80;;
10701;SDS011;5402;50.004;8.246;2024-03-17T06:55:08;6.23;;;5.10;;
10701;SDS011;5402;50.004;8.246;2024-03-17T06:57:37;11.57;;;5.27;;
10701;SDS011;5402;50.004;8.246;2024-03-17T07:00:08;6.93;;;5.40;;
10701;SDS011;5402;50.004;8.246;2024-03-17T07:02:39;9.33;;;6.23;;
10701;SDS011;5402;50.004;8.246;2024-03-17T07:05:10;8.13;;;5.77;;
10701;SDS011;5402;50.004;8.246;2024-03-17T07:07:39;12.27;;;8.87;;
10701;SDS011;5402;50.004;8.246;2024-03-17T07:10:06;49.53;;;30.13;;
10701;SDS011;5402;50.004;8.246;2024-03-17T07:12:33;19.17;;;13.57;;
10701;SDS011;5402;50.004;8.246;2024-03-17T07:15:02;9.80;;;6.83;;
10701;SDS011;5402;50.004;8.246;2024-03-17T07:17:28;11.90;;;6.23;;
10701;SDS011;5402;50.004;8.246;2024-03-17T07:19:55;14.37;;;6.13;;
10701;SDS011;5402;50.004;8.246;2024-03-17T07:22:22;7.80;;;6.17;;
10701;SDS011;5402;50.004;8.246;2024-03-17T07:24:51;9.33;;;6.27;;
10701;SDS011;5402;50.004;8.246;2024-03-17T07:27:20;7.90;;;5.77;;
10701;SDS011;5402;50.004;8.246;2024-03-17T07:29:47;9.43;;;6.00;;
10701;SDS011;5402;50.004;8.246;2024-03-17T07:32:15;8.70;;;6.47;;
10701;SDS011;5402;50.004;8.246;2024-03-17T07:34:42;9.20;;;5.93;;
10701;SDS011;5402;50.004;8.246;2024-03-17T07:37:08;9.80;;;6.00;;
10701;SDS011;5402;50.004;8.246;2024-03-17T07:39:35;7.40;;;5.70;;
10701;SDS011;5402;50.004;8.246;2024-03-17T07:42:02;8.03;;;5.70;;
10701;SDS011;5402;50.004;8.246;2024-03-17T07:44:29;10.73;;;5.63;;
10701;SDS011;5402;50.004;8.246;2024-03-17T07:46:59;8.33;;;5.47;;
10701;SDS011;5402;50.004;8.246;2024-03-17T07:49:27;5.93;;;4.90;;
10701;SDS011;5402;50.004;8.246;2024-03-17T07:51:53;6.77;;;4.93;;
10701;SDS011;5402;50.004;8.246;2024-03-17T07:54:22;5.87;;;4.90;;
10701;SDS011;5402;50.004;8.246;2024-03-17T07:56:49;7.27;;;5.00;;
10701;SDS011;5402;50.004;8.246;2024-03-17T07:59:16;6.67;;;4.93;;
10701;SDS011;5402;50.004;8.246;2024-03-17T08:01:43;6.17;;;5.10;;
10701;SDS011;5402;50.004;8.246;2024-03-17T08:04:10;5.73;;;4.53;;
10701;SDS011;5402;50.004;8.246;2024-03-17T08:06:38;8.00;;;5.37;;
10701;SDS011;5402;50.004;8.246;2024-03-17T08:09:06;7.13;;;4.80;;
10701;SDS011;5402;50.004;8.246;2024-03-17T08:11:33;7.00;;;5.23;;
10701;SDS011;5402;50.004;8.246;2024-03-17T08:13:59;5.90;;;4.63;;
10701;SDS011;5402;50.004;8.246;2024-03-17T08:16:27;6.10;;;4.43;;
10701;SDS011;5402;50.004;8.246;2024-03-17T08:18:55;6.80;;;4.97;;
10701;SDS011;5402;50.004;8.246;2024-03-17T08:21:21;5.97;;;4.77;;
10701;SDS011;5402;50.004;8.246;2024-03-17T08:23:50;6.10;;;4.97;;
10701;SDS011;5402;50.004;8.246;2024-03-17T08:26:17;7.23;;;4.63;;
10701;SDS011;5402;50.004;8.246;2024-03-17T08:28:45;5.20;;;4.40;;
10701;SDS011;5402;50.004;8.246;2024-03-17T08:31:12;6.10;;;4.63;;
10701;SDS011;5402;50.004;8.246;2024-03-17T08:33:40;5.67;;;4.60;;
10701;SDS011;5402;50.004;8.246;2024-03-17T08:36:08;6.60;;;4.73;;
10701;SDS011;5402;50.004;8.246;2024-03-17T08:38:36;6.30;;;4.40;;
10701;SDS011;5402;50.004;8.246;2024-03-17T08:41:05;5.10;;;4.60;;
10701;SDS011;5402;50.004;8.246;2024-03-17T08:43:34;5.57;;;4.57;;
10701;SDS011;5402;50.004;8.246;2024-03-17T08:46:02;7.00;;;4.50;;
10701;SDS011;5402;50.004;8.246;2024-03-17T08:48:31;5.33;;;4.77;;
10701;SDS011;5402;50.004;8.246;2024-03-17T08:51:00;6.73;;;4.57;;
10701;SDS011;5402;50.004;8.246;2024-03-17T08:53:28;5.70;;;4.87;;
10701;SDS011;5402;50.004;8.246;2024-03-17T08:55:55;8.53;;;4.67;;
10701;SDS011;5402;50.004;8.246;2024-03-17T08:58:25;6.07;;;4.63;;
10701;SDS011;5402;50.004;8.246;2024-03-17T09:00:53;7.77;;;5.23;;
10701;SDS011;5402;50.004;8.246;2024-03-17T09:03:21;6.17;;;4.73;;
10701;SDS011;5402;50.004;8.246;2024-03-17T09:05:49;6.97;;;4.23;;
10701;SDS011;5402;50.004;8.246;2024-03-17T09:08:23;4.70;;;4.00;;
10701;SDS011;5402;50.004;8.246;2024-03-17T09:10:54;4.10;;;3.60;;
10701;SDS011;5402;50.004;8.246;2024-03-17T09:13:22;4.67;;;3.63;;
10701;SDS011;5402;50.004;8.246;2024-03-17T09:15:52;5.97;;;3.50;;
10701;SDS011;5402;50.004;8.246;2024-03-17T09:18:20;4.70;;;3.40;;
10701;SDS011;5402;50.004;8.246;2024-03-17T09:20:55;4.00;;;3.43;;
10701;SDS011;5402;50.004;8.246;2024-03-17T09:23:23;5.60;;;3.70;;
10701;SDS011;5402;50.004;8.246;2024-03-17T09:25:57;4.80;;;3.53;;
10701;SDS011;5402;50.004;8.246;2024-03-17T09:28:27;6.67;;;3.60;;
10701;SDS011;5402;50.004;8.246;2024-03-17T09:30:53;3.30;;;3.00;;
10701;SDS011;5402;50.004;8.246;2024-03-17T09:33:20;3.80;;;3.23;;
10701;SDS011;5402;50.004;8.246;2024-03-17T09:35:53;4.80;;;3.83;;
10701;SDS011;5402;50.004;8.246;2024-03-17T09:38:21;6.47;;;3.77;;
10701;SDS011;5402;50.004;8.246;2024-03-17T09:40:48;6.87;;;4.40;;
10701;SDS011;5402;50.004;8.246;2024-03-17T09:43:17;4.10;;;3.70;;
10701;SDS011;5402;50.004;8.246;2024-03-17T09:45:46;4.33;;;3.30;;
10701;SDS011;5402;50.004;8.246;2024-03-17T09:48:13;4.93;;;3.40;;
10701;SDS011;5402;50.004;8.246;2024-03-17T09:50:42;3.60;;;3.30;;
10701;SDS011;5402;50.004;8.246;2024-03-17T09:53:16;4.30;;;3.53;;
10701;SDS011;5402;50.004;8.246;2024-03-17T09:55:44;5.07;;;3.37;;
10701;SDS011;5402;50.004;8.246;2024-03-17T09:58:13;6.43;;;3.17;;
10701;SDS011;5402;50.004;8.246;2024-03-17T10:00:41;4.63;;;3.07;;
10701;SDS011;5402;50.004;8.246;2024-03-17T10:03:09;7.33;;;5.23;;
10701;SDS011;5402;50.004;8.246;2024-03-17T10:05:37;9.40;;;7.03;;
10701;SDS011;5402;50.004;8.246;2024-03-17T10:08:04;4.10;;;2.87;;
10701;SDS011;5402;50.004;8.246;2024-03-17T10:10:33;3.87;;;2.90;;
10701;SDS011;5402;50.004;8.246;2024-03-17T10:13:00;3.30;;;2.90;;
10701;SDS011;5402;50.004;8.246;2024-03-17T10:15:27;4.00;;;2.83;;
10701;SDS011;5402;50.004;8.246;2024-03-17T10:17:54;3.87;;;2.40;;
10701;SDS011;5402;50.004;8.246;2024-03-17T10:20:23;3.53;;;2.80;;
10701;SDS011;5402;50.004;8.246;2024-03-17T10:22:57;3.40;;;2.90;;
10701;SDS011;5402;50.004;8.246;2024-03-17T10:25:24;3.13;;;2.80;;
10701;SDS011;5402;50.004;8.246;2024-03-17T10:27:51;2.47;;;2.27;;
10701;SDS011;5402;50.004;8.246;2024-03-17T10:30:18;3.10;;;2.50;;
10701;SDS011;5402;50.004;8.246;2024-03-17T10:32:48;4.40;;;2.70;;
10701;SDS011;5402;50.004;8.246;2024-03-17T10:35:27;3.77;;;2.87;;
10701;SDS011;5402;50.004;8.246;2024-03-17T10:37:56;3.90;;;2.83;;
10701;SDS011;5402;50.004;8.246;2024-03-17T10:40:24;3.27;;;2.80;;
10701;SDS011;5402;50.004;8.246;2024-03-17T10:42:51;2.97;;;2.77;;
10701;SDS011;5402;50.004;8.246;2024-03-17T10:45:18;3.43;;;3.10;;
10701;SDS011;5402;50.004;8.246;2024-03-17T10:47:47;5.13;;;3.23;;
10701;SDS011;5402;50.004;8.246;2024-03-17T10:50:16;4.47;;;3.30;;
10701;SDS011;5402;50.004;8.246;2024-03-17T10:52:46;4.17;;;3.17;;
10701;SDS011;5402;50.004;8.246;2024-03-17T10:55:22;3.20;;;2.90;;
10701;SDS011;5402;50.004;8.246;2024-03-17T10:57:50;3.80;;;3.30;;
10701;SDS011;5402;50.004;8.246;2024-03-17T11:00:18;4.33;;;3.20;;
10701;SDS011;5402;50.004;8.246;2024-03-17T11:02:47;4.90;;;3.43;;
10701;SDS011;5402;50.004;8.246;2024-03-17T11:05:17;3.43;;;3.13;;
10701;SDS011;5402;50.004;8.246;2024-03-17T11:07:47;6.53;;;3.30;;
10701;SDS011;5402;50.004;8.246;2024-03-17T11:10:18;4.73;;;3.17;;
10701;SDS011;5402;50.004;8.246;2024-03-17T11:12:47;5.53;;;3.63;;
10701;SDS011;5402;50.004;8.246;2024-03-17T11:20:58;4.50;;;3.30;;
10701;SDS011;5402;50.004;8.246;2024-03-17T11:23:34;5.50;;;3.20;;
10701;SDS011;5402;50.004;8.246;2024-03-17T11:26:03;5.57;;;4.03;;
10701;SDS011;5402;50.004;8.246;2024-03-17T11:28:47;4.37;;;3.67;;
10701;SDS011;5402;50.004;8.246;2024-03-17T11:34:02;4.47;;;3.70;;
10701;SDS011;5402;50.004;8.246;2024-03-17T11:36:35;7.83;;;3.90;;
10701;SDS011;5402;50.004;8.246;2024-03-17T11:39:04;3.77;;;3.40;;
10701;SDS011;5402;50.004;8.246;2024-03-17T11:41:36;5.43;;;3.40;;
10701;SDS011;5402;50.004;8.246;2024-03-17T11:44:15;5.53;;;3.50;;
10701;SDS011;5402;50.004;8.246;2024-03-17T11:46:50;5.47;;;3.57;;
10701;SDS011;5402;50.004;8.246;2024-03-17T11:49:20;5.17;;;3.40;;
10701;SDS011;5402;50.004;8.246;2024-03-17T11:51:48;5.17;;;3.60;;
10701;SDS011;5402;50.004;8.246;2024-03-17T11:54:17;5.43;;;4.10;;
10701;SDS011;5402;50.004;8.246;2024-03-17T11:56:45;5.17;;;4.30;;
10701;SDS011;5402;50.004;8.246;2024-03-17T11:59:13;6.60;;;4.53;;
10701;SDS011;5402;50.004;8.246;2024-03-17T12:01:42;5.13;;;3.97;;
10701;SDS011;5402;50.004;8.246;2024-03-17T12:04:08;6.63;;;4.83;;
10701;SDS011;5402;50.004;8.246;2024-03-17T12:06:36;7.00;;;5.33;;
10701;SDS011;5402;50.004;8.246;2024-03-17T12:09:16;5.37;;;4.80;;
10701;SDS011;5402;50.004;8.246;2024-03-17T12:11:47;6.50;;;5.10;;
10701;SDS011;5402;50.004;8.246;2024-03-17T12:14:14;6.90;;;5.17;;
10701;SDS011;5402;50.004;8.246;2024-03-17T12:16:52;6.10;;;4.83;;
10701;SDS011;5402;50.004;8.246;2024-03-17T12:19:19;7.03;;;5.10;;
10701;SDS011;5402;50.004;8.246;2024-03-17T12:21:47;8.17;;;5.37;;
10701;SDS011;5402;50.004;8.246;2024-03-17T12:24:15;8.07;;;5.13;;
10701;SDS011;5402;50.004;8.246;2024-03-17T12:26:45;7.63;;;5.13;;
10701;SDS011;5402;50.004;8.246;2024-03-17T12:29:22;7.40;;;5.40;;
10701;SDS011;5402;50.004;8.246;2024-03-17T12:31:50;6.90;;;4.93;;
10701;SDS011;5402;50.004;8.246;2024-03-17T12:34:16;5.73;;;5.13;;
10701;SDS011;5402;50.004;8.246;2024-03-17T12:36:44;9.90;;;6.07;;
10701;SDS011;5402;50.004;8.246;2024-03-17T12:39:11;7.37;;;5.47;;
10701;SDS011;5402;50.004;8.246;2024-03-17T12:41:44;7.77;;;6.20;;
10701;SDS011;5402;50.004;8.246;2024-03-17T12:44:21;7.23;;;5.37;;
10701;SDS011;5402;50.004;8.246;2024-03-17T12:46:48;7.17;;;5.73;;
10701;SDS011;5402;50.004;8.246;2024-03-17T12:49:19;8.03;;;6.00;;
10701;SDS011;5402;50.004;8.246;2024-03-17T12:51:46;8.80;;;6.13;;
10701;SDS011;5402;50.004;8.246;2024-03-17T12:54:12;9.23;;;6.00;;
10701;SDS011;5402;50.004;8.246;2024-03-17T12:56:39;6.70;;;5.43;;
10701;SDS011;5402;50.004;8.246;2024-03-17T12:59:24;8.27;;;5.67;;
10701;SDS011;5402;50.004;8.246;2024-03-17T13:02:09;7.43;;;6.27;;
10701;SDS011;5402;50.004;8.246;2024-03-17T13:04:38;7.33;;;5.73;;
10701;SDS011;5402;50.004;8.246;2024-03-17T13:07:11;9.10;;;6.07;;
10701;SDS011;5402;50.004;8.246;2024-03-17T13:09:39;8.87;;;6.03;;
10701;SDS011;5402;50.004;8.246;2024-03-17T13:12:13;8.07;;;5.83;;
10701;SDS011;5402;50.004;8.246;2024-03-17T13:14:42;8.97;;;6.30;;
10701;SDS011;5402;50.004;8.246;2024-03-17T13:17:10;7.60;;;5.73;;
10701;SDS011;5402;50.004;8.246;2024-03-17T13:19:45;9.00;;;6.40;;
10701;SDS011;5402;50.004;8.246;2024-03-17T13:22:12;10.83;;;6.07;;
10701;SDS011;5402;50.004;8.246;2024-03-17T13:24:39;9.37;;;6.27;;
10701;SDS011;5402;50.004;8.246;2024-03-17T13:27:06;7.60;;;6.33;;
10701;SDS011;5402;50.004;8.246;2024-03-17T13:29:33;8.50;;;6.50;;
10701;SDS011;5402;50.004;8.246;2024-03-17T13:32:02;7.33;;;6.00;;
10701;SDS011;5402;50.004;8.246;2024-03-17T13:34:29;8.23;;;6.20;;
10701;SDS011;5402;50.004;8.246;2024-03-17T13:36:56;8.23;;;6.37;;
10701;SDS011;5402;50.004;8.246;2024-03-17T13:39:28;9.13;;;7.10;;
10701;SDS011;5402;50.004;8.246;2024-03-17T13:41:56;9.37;;;6.63;;
10701;SDS011;5402;50.004;8.246;2024-03-17T13:44:27;8.63;;;6.37;;
10701;SDS011;5402;50.004;8.246;2024-03-17T13:46:54;9.37;;;6.70;;
10701;SDS011;5402;50.004;8.246;2024-03-17T13:49:22;7.23;;;5.53;;
10701;SDS011;5402;50.004;8.246;2024-03-17T13:51:49;7.83;;;6.17;;
10701;SDS011;5402;50.004;8.246;2024-03-17T13:54:16;8.43;;;6.27;;
10701;SDS011;5402;50.004;8.246;2024-03-17T13:56:46;9.43;;;6.50;;
10701;SDS011;5402;50.004;8.246;2024-03-17T13:59:14;9.17;;;6.53;;
10701;SDS011;5402;50.004;8.246;2024-03-17T14:01:41;8.90;;;6.20;;
10701;SDS011;5402;50.004;8.246;2024-03-17T14:04:10;8.47;;;6.33;;
10701;SDS011;5402;50.004;8.246;2024-03-17T14:06:42;13.00;;;6.80;;
10701;SDS011;5402;50.004;8.246;2024-03-17T14:09:10;8.93;;;6.67;;
10701;SDS011;5402;50.004;8.246;2024-03-17T14:11:37;9.20;;;6.20;;
10701;SDS011;5402;50.004;8.246;2024-03-17T14:14:04;8.23;;;5.97;;
10701;SDS011;5402;50.004;8.246;2024-03-17T14:16:33;8.53;;;5.90;;
10701;SDS011;5402;50.004;8.246;2024-03-17T14:18:59;9.37;;;6.37;;
10701;SDS011;5402;50.004;8.246;2024-03-17T14:21:27;7.90;;;5.80;;
10701;SDS011;5402;50.004;8.246;2024-03-17T14:23:55;8.93;;;6.17;;
10701;SDS011;5402;50.004;8.246;2024-03-17T14:26:22;8.00;;;6.33;;
10701;SDS011;5402;50.004;8.246;2024-03-17T14:28:49;9.40;;;6.47;;
10701;SDS011;5402;50.004;8.246;2024-03-17T14:31:19;8.70;;;5.90;;
10701;SDS011;5402;50.004;8.246;2024-03-17T14:33:45;10.50;;;6.50;;
10701;SDS011;5402;50.004;8.246;2024-03-17T14:36:12;8.97;;;6.40;;
10701;SDS011;5402;50.004;8.246;2024-03-17T14:38:39;9.47;;;6.17;;
10701;SDS011;5402;50.004;8.246;2024-03-17T14:41:09;7.30;;;6.00;;
10701;SDS011;5402;50.004;8.246;2024-03-17T14:43:36;8.40;;;6.23;;
10701;SDS011;5402;50.004;8.246;2024-03-17T14:46:04;9.73;;;6.40;;
10701;SDS011;5402;50.004;8.246;2024-03-17T14:48:33;9.63;;;6.20;;
10701;SDS011;5402;50.004;8.246;2024-03-17T14:51:00;8.13;;;5.60;;
10701;SDS011;5402;50.004;8.246;2024-03-17T14:53:27;7.70;;;5.23;;
10701;SDS011;5402;50.004;8.246;2024-03-17T14:55:54;8.23;;;5.83;;
10701;SDS011;5402;50.004;8.246;2024-03-17T14:58:22;11.17;;;6.20;;
10701;SDS011;5402;50.004;8.246;2024-03-17T15:00:49;7.57;;;5.63;;
10701;SDS011;5402;50.004;8.246;2024-03-17T15:03:16;7.40;;;5.17;;
10701;SDS011;5402;50.004;8.246;2024-03-17T15:05:42;7.57;;;5.83;;
10701;SDS011;5402;50.004;8.246;2024-03-17T15:08:09;8.27;;;5.33;;
10701;SDS011;5402;50.004;8.246;2024-03-17T15:10:36;9.53;;;5.80;;
10701;SDS011;5402;50.004;8.246;2024-03-17T15:13:03;9.40;;;5.43;;